Henderson, Nebraska
Current Conditions -  °F | °C
As of 4:15 PM on Tuesday 25 Nov 2014 (Local Time) from KAUH Reporting Station
Overcast Overcast  
Wind Chill:   Ceiling: 5000
Heat Index:   Visibility: 10mi
Dew Point: -5°   Wind: 7mph
Humidity: 46%   Direction: 190°S
Pressure: 29.9"   Gusts: NA
Location:  40.78°N, 97.81°W
Report Text: KAUH 252215Z AUTO 19006KT 10SM SCT045 OVC050 07/M04 A2990 RMK AO2 T00651045
Loading
Personal Weather Stations






























Interactive Weather Map New forecast layout! Learn more

10-Day Weather Forecast

Advertisements
Track Severe Weather on mobile